createdAt,value
2017-08-29T00:00:01.708Z,4.77
2017-08-29T00:02:35.941Z,5.50
2017-08-29T00:05:10.445Z,5.03
2017-08-29T00:07:45.689Z,5.07
2017-08-29T00:10:19.553Z,5.67
2017-08-29T00:12:55.177Z,5.23
2017-08-29T00:15:29.144Z,5.00
2017-08-29T00:18:03.194Z,5.33
2017-08-29T00:20:37.216Z,5.00
2017-08-29T00:23:11.833Z,4.30
2017-08-29T00:25:46.234Z,5.17
2017-08-29T00:28:20.725Z,5.27
2017-08-29T00:30:55.183Z,5.70
2017-08-29T00:33:29.916Z,5.03
2017-08-29T00:36:03.430Z,4.43
2017-08-29T00:38:37.721Z,4.77
2017-08-29T00:41:11.836Z,4.60
2017-08-29T00:43:45.720Z,4.60
2017-08-29T00:46:19.347Z,5.03
2017-08-29T00:48:54.068Z,4.53
2017-08-29T00:51:28.000Z,4.20
2017-08-29T00:54:01.899Z,4.77
2017-08-29T00:56:36.011Z,4.70
2017-08-29T00:59:10.512Z,4.60
2017-08-29T01:01:44.182Z,4.63
2017-08-29T01:04:19.050Z,4.63
2017-08-29T01:06:52.853Z,5.00
2017-08-29T01:09:26.734Z,4.70
2017-08-29T01:12:01.187Z,5.03
2017-08-29T01:14:35.781Z,4.70
2017-08-29T01:17:09.712Z,5.50
2017-08-29T01:19:43.711Z,5.50
2017-08-29T01:22:17.753Z,5.17
2017-08-29T01:24:52.068Z,4.50
2017-08-29T01:27:27.171Z,4.30
2017-08-29T01:30:01.629Z,4.50
2017-08-29T01:32:36.130Z,4.37
2017-08-29T01:35:09.767Z,4.10
2017-08-29T01:37:43.622Z,4.10
2017-08-29T01:40:18.683Z,4.03
2017-08-29T01:42:53.089Z,4.00
2017-08-29T01:45:27.324Z,4.30
2017-08-29T01:48:01.205Z,4.37
2017-08-29T01:50:35.522Z,4.20
2017-08-29T01:53:10.072Z,4.40
2017-08-29T01:55:44.891Z,4.20
2017-08-29T01:58:19.125Z,3.60
2017-08-29T02:00:54.445Z,3.60
2017-08-29T02:03:29.160Z,4.10
2017-08-29T02:06:03.279Z,3.30
2017-08-29T02:08:37.696Z,3.70
2017-08-29T02:11:12.633Z,3.40
2017-08-29T02:13:47.263Z,3.67
2017-08-29T02:16:21.048Z,3.50
2017-08-29T02:18:54.769Z,3.57
2017-08-29T02:21:29.088Z,3.40
2017-08-29T02:24:02.892Z,3.73
2017-08-29T02:26:36.695Z,3.67
2017-08-29T02:29:10.654Z,4.00
2017-08-29T02:31:45.095Z,5.63
2017-08-29T02:34:19.012Z,6.13
2017-08-29T02:36:52.881Z,7.20
2017-08-29T02:39:26.961Z,7.93
2017-08-29T02:42:01.059Z,8.60
2017-08-29T02:44:35.534Z,8.60
2017-08-29T02:47:09.569Z,8.93
2017-08-29T02:49:44.512Z,8.47
2017-08-29T02:52:18.948Z,7.83
2017-08-29T02:54:53.409Z,7.70
2017-08-29T02:57:27.286Z,7.57
2017-08-29T03:00:01.228Z,8.30
2017-08-29T03:02:35.771Z,6.70
2017-08-29T03:05:09.901Z,7.00
2017-08-29T03:07:44.096Z,7.20
2017-08-29T03:10:18.291Z,7.20
2017-08-29T03:12:52.345Z,6.70
2017-08-29T03:15:26.796Z,6.30
2017-08-29T03:18:01.108Z,6.40
2017-08-29T03:20:36.047Z,6.93
2017-08-29T03:23:10.687Z,6.40
2017-08-29T03:25:44.819Z,5.70
2017-08-29T03:28:19.493Z,5.37
2017-08-29T03:30:53.427Z,4.83
2017-08-29T03:33:27.335Z,5.60
2017-08-29T03:36:01.336Z,6.27
2017-08-29T03:38:35.683Z,7.67
2017-08-29T03:41:09.609Z,6.77
2017-08-29T03:43:43.922Z,5.13
2017-08-29T03:46:19.101Z,4.50
2017-08-29T03:48:53.007Z,5.13
2017-08-29T03:51:26.878Z,4.10
2017-08-29T03:54:01.303Z,4.50
2017-08-29T03:56:35.521Z,4.33
2017-08-29T03:59:09.648Z,4.33
2017-08-29T04:01:44.086Z,5.20
2017-08-29T04:04:18.179Z,4.77
2017-08-29T04:06:51.747Z,5.27
2017-08-29T04:09:25.567Z,4.53
2017-08-29T04:11:59.316Z,4.70
2017-08-29T04:14:33.629Z,4.97
2017-08-29T04:17:07.640Z,4.80
2017-08-29T04:19:41.586Z,5.10
2017-08-29T04:22:15.699Z,4.20
2017-08-29T04:24:50.053Z,5.20
2017-08-29T04:27:23.636Z,12.57
2017-08-29T04:29:58.053Z,13.10
2017-08-29T04:32:32.481Z,7.73
2017-08-29T04:35:07.143Z,6.10
2017-08-29T04:37:41.384Z,5.60
2017-08-29T04:40:16.751Z,5.70
2017-08-29T04:42:50.511Z,5.10
2017-08-29T04:45:24.698Z,5.40
2017-08-29T04:47:59.730Z,5.37
2017-08-29T04:50:34.328Z,5.77
2017-08-29T04:53:08.642Z,5.87
2017-08-29T04:55:42.278Z,7.70
2017-08-29T04:58:16.522Z,7.90
2017-08-29T05:00:50.826Z,7.40
2017-08-29T05:03:24.944Z,7.60
2017-08-29T05:05:58.945Z,7.53
2017-08-29T05:08:33.245Z,8.17
2017-08-29T05:11:07.668Z,6.27
2017-08-29T05:13:42.272Z,7.43
2017-08-29T05:16:16.179Z,6.77
2017-08-29T05:18:49.800Z,7.03
2017-08-29T05:21:23.775Z,6.93
2017-08-29T05:23:57.495Z,7.17
2017-08-29T05:26:32.242Z,6.23
2017-08-29T05:29:06.120Z,6.40
2017-08-29T05:31:40.476Z,7.40
2017-08-29T05:34:14.373Z,6.20
2017-08-29T05:36:48.679Z,6.60
2017-08-29T05:39:23.969Z,6.33
2017-08-29T05:41:57.620Z,6.37
2017-08-29T05:44:31.643Z,5.23
2017-08-29T05:47:05.746Z,5.90
2017-08-29T05:49:39.888Z,4.20
2017-08-29T05:52:14.207Z,4.70
2017-08-29T05:54:48.456Z,4.87
2017-08-29T05:57:22.989Z,4.67
2017-08-29T05:59:57.277Z,5.20
2017-08-29T06:02:31.263Z,5.60
2017-08-29T06:05:06.020Z,5.57
2017-08-29T06:07:39.705Z,6.27
2017-08-29T06:10:14.075Z,6.67
2017-08-29T06:12:48.244Z,6.07
2017-08-29T06:15:22.228Z,6.97
2017-08-29T06:17:56.597Z,7.10
2017-08-29T06:20:30.802Z,6.23
2017-08-29T06:23:04.620Z,10.37
2017-08-29T06:25:38.179Z,5.80
2017-08-29T06:28:12.763Z,6.03
2017-08-29T06:30:47.336Z,5.20
2017-08-29T06:33:21.530Z,5.60
2017-08-29T06:35:55.721Z,5.73
2017-08-29T06:38:29.374Z,5.13
2017-08-29T06:41:04.176Z,5.07
2017-08-29T06:43:39.080Z,5.47
2017-08-29T06:46:13.459Z,4.60
2017-08-29T06:48:47.469Z,5.80
2017-08-29T06:51:21.539Z,8.50
2017-08-29T06:53:55.789Z,6.60
2017-08-29T06:56:29.678Z,5.77
2017-08-29T06:59:03.788Z,6.20
2017-08-29T07:01:38.107Z,4.50
2017-08-29T07:04:11.972Z,5.40
2017-08-29T07:06:46.404Z,4.30
2017-08-29T07:09:20.260Z,5.40
2017-08-29T07:11:54.333Z,5.93
2017-08-29T07:14:28.200Z,4.83
2017-08-29T07:17:02.831Z,6.20
2017-08-29T07:19:36.983Z,5.73
2017-08-29T07:22:11.169Z,5.23
2017-08-29T07:24:45.300Z,5.10
2017-08-29T07:27:19.428Z,4.70
2017-08-29T07:29:53.909Z,5.03
2017-08-29T07:32:27.883Z,5.00
2017-08-29T07:35:01.936Z,4.37
2017-08-29T07:37:36.859Z,4.67
2017-08-29T07:40:11.116Z,4.63
2017-08-29T07:42:45.100Z,5.17
2017-08-29T07:45:19.352Z,4.93
2017-08-29T07:47:53.556Z,4.73
2017-08-29T07:50:27.756Z,4.27
2017-08-29T07:53:02.840Z,4.97
2017-08-29T07:55:36.486Z,4.13
2017-08-29T07:58:10.551Z,4.47
2017-08-29T08:00:44.495Z,4.40
2017-08-29T08:03:18.378Z,4.53
2017-08-29T08:05:52.319Z,4.17
2017-08-29T08:08:26.456Z,4.50
2017-08-29T08:11:00.608Z,4.50
2017-08-29T08:13:34.727Z,4.40
2017-08-29T08:16:08.351Z,4.50
2017-08-29T08:18:42.725Z,4.20
2017-08-29T08:21:17.029Z,3.90
2017-08-29T08:23:51.391Z,4.57
2017-08-29T08:26:25.515Z,5.00
2017-08-29T08:29:00.514Z,4.97
2017-08-29T08:31:34.714Z,4.20
2017-08-29T08:34:08.544Z,5.50
2017-08-29T08:36:42.829Z,4.10
2017-08-29T08:39:18.237Z,4.43
2017-08-29T08:41:52.406Z,4.13
2017-08-29T08:44:26.649Z,4.40
2017-08-29T08:47:00.691Z,4.40
2017-08-29T08:49:35.051Z,4.13
2017-08-29T08:52:08.694Z,3.90
2017-08-29T08:54:43.176Z,4.50
2017-08-29T08:57:17.296Z,4.70
2017-08-29T08:59:51.459Z,4.43
2017-08-29T09:02:25.392Z,4.20
2017-08-29T09:04:59.867Z,3.93
2017-08-29T09:07:33.871Z,4.20
2017-08-29T09:10:08.206Z,4.53
2017-08-29T09:12:42.489Z,3.87
2017-08-29T09:15:16.437Z,4.00
2017-08-29T09:17:50.444Z,4.43
2017-08-29T09:20:24.460Z,4.50
2017-08-29T09:22:59.009Z,4.80
2017-08-29T09:25:32.669Z,3.60
2017-08-29T09:28:06.962Z,4.23
2017-08-29T09:30:40.401Z,3.60
2017-08-29T09:33:14.829Z,3.90
2017-08-29T09:35:49.330Z,3.70
2017-08-29T09:38:23.162Z,4.10
2017-08-29T09:40:57.362Z,3.97
2017-08-29T09:43:31.637Z,3.83
2017-08-29T09:46:05.142Z,3.90
2017-08-29T09:48:38.752Z,3.80
2017-08-29T09:51:12.999Z,3.40
2017-08-29T09:53:47.220Z,4.20
2017-08-29T09:56:21.190Z,3.80
2017-08-29T09:58:55.132Z,3.50
2017-08-29T10:01:29.355Z,4.30
2017-08-29T10:04:03.360Z,3.97
2017-08-29T10:06:37.400Z,4.37
2017-08-29T10:09:11.433Z,4.17
2017-08-29T10:11:45.707Z,4.10
2017-08-29T10:14:20.114Z,4.27
2017-08-29T10:16:54.173Z,4.03
2017-08-29T10:19:28.537Z,3.77
2017-08-29T10:22:02.151Z,4.10
2017-08-29T10:24:36.084Z,4.23
2017-08-29T10:27:11.565Z,3.87
2017-08-29T10:29:45.710Z,4.23
2017-08-29T10:32:19.904Z,4.47
2017-08-29T10:34:54.384Z,4.20
2017-08-29T10:37:28.148Z,4.63
2017-08-29T10:40:02.008Z,4.10
2017-08-29T10:42:36.284Z,4.23
2017-08-29T10:45:10.501Z,4.60
2017-08-29T10:47:45.448Z,3.83
2017-08-29T10:50:20.470Z,4.03
2017-08-29T10:52:53.944Z,4.43
2017-08-29T10:55:28.964Z,4.33
2017-08-29T10:58:03.506Z,4.33
2017-08-29T11:00:37.883Z,4.20
2017-08-29T11:03:11.790Z,4.20
2017-08-29T11:05:46.638Z,3.80
2017-08-29T11:08:21.004Z,4.10
2017-08-29T11:10:55.047Z,4.03
2017-08-29T11:13:28.827Z,4.70
2017-08-29T11:16:03.193Z,4.67
2017-08-29T11:18:37.522Z,5.00
2017-08-29T11:21:11.364Z,4.20
2017-08-29T11:23:44.749Z,4.20
2017-08-29T11:26:18.928Z,4.00
2017-08-29T11:28:53.115Z,3.87
2017-08-29T11:31:27.323Z,4.13
2017-08-29T11:34:01.384Z,4.40
2017-08-29T11:36:35.598Z,4.20
2017-08-29T11:39:09.988Z,3.83
2017-08-29T11:41:44.195Z,4.13
2017-08-29T11:44:18.475Z,4.50
2017-08-29T11:46:52.719Z,4.30
2017-08-29T11:49:27.668Z,4.20
2017-08-29T11:52:01.128Z,4.30
2017-08-29T11:54:35.123Z,4.50
2017-08-29T11:57:09.316Z,4.30
2017-08-29T11:59:44.708Z,5.17
2017-08-29T12:02:19.117Z,5.00
2017-08-29T12:04:53.113Z,4.70
2017-08-29T12:07:27.132Z,4.47
2017-08-29T12:10:01.522Z,4.53
2017-08-29T12:12:35.961Z,4.30
2017-08-29T12:15:09.915Z,4.40
2017-08-29T12:17:44.347Z,4.60
2017-08-29T12:20:18.358Z,4.00
2017-08-29T12:22:52.616Z,4.33
2017-08-29T12:25:26.652Z,4.53
2017-08-29T12:28:00.884Z,4.43
2017-08-29T12:30:35.605Z,4.20
2017-08-29T12:33:09.992Z,4.37
2017-08-29T12:35:44.212Z,4.53
2017-08-29T12:38:18.709Z,4.40
2017-08-29T12:40:52.645Z,4.47
2017-08-29T12:43:26.351Z,4.90
2017-08-29T12:46:00.320Z,4.70
2017-08-29T12:48:34.589Z,4.40
2017-08-29T12:51:08.771Z,12.60
2017-08-29T12:53:42.894Z,5.40
2017-08-29T12:56:16.872Z,5.27
2017-08-29T12:58:51.483Z,5.43
2017-08-29T13:01:25.712Z,5.10
2017-08-29T13:04:00.237Z,4.57
2017-08-29T13:06:34.060Z,7.70
2017-08-29T13:09:08.436Z,6.10
2017-08-29T13:11:42.258Z,5.40
2017-08-29T13:14:16.650Z,4.47
2017-08-29T13:16:50.824Z,4.40
2017-08-29T13:19:25.301Z,4.60
2017-08-29T13:21:59.705Z,4.53
2017-08-29T13:24:35.074Z,5.17
2017-08-29T13:27:09.390Z,4.37
2017-08-29T13:29:43.671Z,4.30
2017-08-29T13:32:17.766Z,4.70
2017-08-29T13:34:52.136Z,4.77
2017-08-29T13:37:25.633Z,4.40
2017-08-29T13:39:59.974Z,4.90
2017-08-29T13:42:34.058Z,4.50
2017-08-29T13:45:08.108Z,4.70
2017-08-29T13:47:41.601Z,4.80
2017-08-29T13:50:15.794Z,4.87
2017-08-29T13:52:54.575Z,4.40
2017-08-29T13:55:29.080Z,4.33
2017-08-29T13:58:03.508Z,4.60
2017-08-29T14:00:37.672Z,4.80
2017-08-29T14:03:12.503Z,4.47
2017-08-29T14:05:46.076Z,4.17
2017-08-29T14:08:20.198Z,4.47
2017-08-29T14:10:53.625Z,4.50
2017-08-29T14:13:28.135Z,4.63
2017-08-29T14:16:01.958Z,4.30
2017-08-29T14:18:36.255Z,4.63
2017-08-29T14:21:10.303Z,4.43
2017-08-29T14:23:44.803Z,4.60
2017-08-29T14:26:18.548Z,4.43
2017-08-29T14:28:52.656Z,4.57
2017-08-29T14:31:26.215Z,4.37
2017-08-29T14:34:00.448Z,4.63
2017-08-29T14:36:34.952Z,4.40
2017-08-29T14:39:10.061Z,4.40
2017-08-29T14:41:43.667Z,4.37
2017-08-29T14:44:18.104Z,4.30
2017-08-29T14:46:57.922Z,4.27
2017-08-29T14:49:32.578Z,4.33
2017-08-29T14:52:11.506Z,4.30
2017-08-29T14:54:47.357Z,4.27
2017-08-29T14:57:21.069Z,4.50
2017-08-29T14:59:55.159Z,4.13
2017-08-29T15:02:29.248Z,3.90
2017-08-29T15:05:03.641Z,4.30
2017-08-29T15:07:38.053Z,3.80
2017-08-29T15:10:12.278Z,4.10
2017-08-29T15:12:46.911Z,4.30
2017-08-29T15:15:20.958Z,4.30
2017-08-29T15:17:55.252Z,4.73
2017-08-29T15:20:29.540Z,3.97
2017-08-29T15:23:03.873Z,3.93
2017-08-29T15:25:38.701Z,4.40
2017-08-29T15:28:13.778Z,4.07
2017-08-29T15:30:48.389Z,4.00
2017-08-29T15:33:22.070Z,4.10
2017-08-29T15:35:55.972Z,4.40
2017-08-29T15:38:29.968Z,4.07
2017-08-29T15:41:04.472Z,4.23
2017-08-29T15:43:38.826Z,3.80
2017-08-29T15:46:12.921Z,3.83
2017-08-29T15:48:47.089Z,4.13
2017-08-29T15:51:21.000Z,4.10
2017-08-29T15:53:55.284Z,3.77
2017-08-29T15:56:29.736Z,4.20
2017-08-29T15:59:03.826Z,3.57
2017-08-29T16:01:38.013Z,3.80
2017-08-29T16:04:12.140Z,3.60
2017-08-29T16:06:45.883Z,3.50
2017-08-29T16:09:19.504Z,3.83
2017-08-29T16:11:53.628Z,3.70
2017-08-29T16:14:27.092Z,4.03
2017-08-29T16:17:00.873Z,4.30
2017-08-29T16:19:35.038Z,3.53
2017-08-29T16:22:09.274Z,3.63
2017-08-29T16:24:43.036Z,3.90
2017-08-29T16:27:17.223Z,3.87
2017-08-29T16:29:51.587Z,4.13
2017-08-29T16:32:25.452Z,4.13
2017-08-29T16:35:00.079Z,3.83
2017-08-29T16:37:33.910Z,4.07
2017-08-29T16:40:08.780Z,4.27
2017-08-29T16:42:42.996Z,3.77
2017-08-29T16:45:16.747Z,3.93
2017-08-29T16:47:50.608Z,4.40
2017-08-29T16:50:24.852Z,4.57
2017-08-29T16:52:59.243Z,4.50
2017-08-29T16:55:33.215Z,3.90
2017-08-29T16:58:07.426Z,3.90
2017-08-29T17:00:41.624Z,3.93
2017-08-29T17:03:15.644Z,3.73
2017-08-29T17:05:49.822Z,4.80
2017-08-29T17:08:23.989Z,5.77
2017-08-29T17:10:58.321Z,7.57
2017-08-29T17:13:32.418Z,8.33
2017-08-29T17:16:06.340Z,6.90
2017-08-29T17:18:40.784Z,5.57
2017-08-29T17:21:14.531Z,5.87
2017-08-29T17:23:48.740Z,6.60
2017-08-29T17:26:23.359Z,5.40
2017-08-29T17:28:57.639Z,5.63
2017-08-29T17:31:31.240Z,5.10
2017-08-29T17:34:05.498Z,5.57
2017-08-29T17:36:40.077Z,5.17
2017-08-29T17:39:13.992Z,5.17
2017-08-29T17:41:47.713Z,4.87
2017-08-29T17:44:22.186Z,5.57
2017-08-29T17:46:55.621Z,5.70
2017-08-29T17:49:29.616Z,5.20
2017-08-29T17:52:04.098Z,5.70
2017-08-29T17:54:38.005Z,5.00
2017-08-29T17:57:11.735Z,5.03
2017-08-29T17:59:46.344Z,5.20
2017-08-29T18:02:20.396Z,5.70
2017-08-29T18:04:54.354Z,4.97
2017-08-29T18:07:28.719Z,4.60
2017-08-29T18:10:02.496Z,4.83
2017-08-29T18:12:36.681Z,5.20
2017-08-29T18:15:11.128Z,4.77
2017-08-29T18:17:45.644Z,4.43
2017-08-29T18:20:19.873Z,5.03
2017-08-29T18:22:53.867Z,4.97
2017-08-29T18:28:08.393Z,4.80
2017-08-29T18:30:42.671Z,4.50
2017-08-29T18:33:16.786Z,5.20
2017-08-29T18:35:50.702Z,4.87
2017-08-29T18:38:24.826Z,4.40
2017-08-29T18:40:59.222Z,4.63
2017-08-29T18:43:33.276Z,4.77
2017-08-29T18:46:07.837Z,4.80
2017-08-29T18:48:41.847Z,5.00
2017-08-29T18:51:16.131Z,4.40
2017-08-29T18:53:50.297Z,5.33
2017-08-29T18:56:24.523Z,4.73
2017-08-29T18:58:58.644Z,4.80
2017-08-29T19:01:32.402Z,4.70
2017-08-29T19:04:06.411Z,4.50
2017-08-29T19:06:40.542Z,4.30
2017-08-29T19:09:14.509Z,4.87
2017-08-29T19:11:48.675Z,5.03
2017-08-29T19:14:23.012Z,4.47
2017-08-29T19:16:57.116Z,5.10
2017-08-29T19:19:31.141Z,5.00
2017-08-29T19:22:05.053Z,4.93
2017-08-29T19:24:39.417Z,4.33
2017-08-29T19:27:13.398Z,4.60
2017-08-29T19:29:47.995Z,6.33
2017-08-29T19:32:21.551Z,5.23
2017-08-29T19:34:55.628Z,5.47
2017-08-29T19:37:30.033Z,5.13
2017-08-29T19:40:04.381Z,4.03
2017-08-29T19:42:37.936Z,4.90
2017-08-29T19:45:12.266Z,4.20
2017-08-29T19:47:46.311Z,4.60
2017-08-29T19:50:20.981Z,5.00
2017-08-29T19:52:55.705Z,5.00
2017-08-29T19:55:29.856Z,4.93
2017-08-29T19:58:03.812Z,4.83
2017-08-29T20:00:39.104Z,5.30
2017-08-29T20:03:13.304Z,5.17
2017-08-29T20:05:47.765Z,5.10
2017-08-29T20:08:22.136Z,5.37
2017-08-29T20:10:56.642Z,5.10
2017-08-29T20:13:30.541Z,5.03
2017-08-29T20:16:04.778Z,5.37
2017-08-29T20:18:39.530Z,4.60
2017-08-29T20:21:13.876Z,4.97
2017-08-29T20:23:48.682Z,4.93
2017-08-29T20:26:22.975Z,4.67
2017-08-29T20:28:56.517Z,5.27
2017-08-29T20:31:30.191Z,5.27
2017-08-29T20:34:04.536Z,5.57
2017-08-29T20:36:38.734Z,5.60
2017-08-29T20:39:12.673Z,5.17
2017-08-29T20:41:47.857Z,5.27
2017-08-29T20:44:21.367Z,5.53
2017-08-29T20:46:55.595Z,5.40
2017-08-29T20:49:29.817Z,5.23
2017-08-29T20:52:03.898Z,5.50
2017-08-29T20:54:37.960Z,5.30
2017-08-29T20:57:12.051Z,5.43
2017-08-29T20:59:46.546Z,5.00
2017-08-29T21:02:20.736Z,5.40
2017-08-29T21:04:54.909Z,5.03
2017-08-29T21:07:28.436Z,5.17
2017-08-29T21:10:03.152Z,5.87
2017-08-29T21:12:37.409Z,5.30
2017-08-29T21:15:11.770Z,6.40
2017-08-29T21:17:46.144Z,6.20
2017-08-29T21:20:20.290Z,5.10
2017-08-29T21:22:53.789Z,5.63
2017-08-29T21:25:27.322Z,5.80
2017-08-29T21:28:01.620Z,5.90
2017-08-29T21:30:35.673Z,5.93
2017-08-29T21:33:10.071Z,5.33
2017-08-29T21:35:44.458Z,5.50
2017-08-29T21:38:18.540Z,6.27
2017-08-29T21:40:52.815Z,6.40
2017-08-29T21:43:26.864Z,5.67
2017-08-29T21:46:00.916Z,6.00
2017-08-29T21:48:35.613Z,6.00
2017-08-29T21:51:10.132Z,6.28
2017-08-29T21:53:45.418Z,5.70
2017-08-29T21:56:19.553Z,5.57
2017-08-29T21:58:53.697Z,6.20
2017-08-29T22:01:27.814Z,6.20
2017-08-29T22:04:02.219Z,5.60
2017-08-29T22:06:36.089Z,5.50
2017-08-29T22:09:10.132Z,5.53
2017-08-29T22:11:44.069Z,6.33
2017-08-29T22:14:18.575Z,6.20
2017-08-29T22:16:52.213Z,6.50
2017-08-29T22:19:27.317Z,5.53
2017-08-29T22:22:01.505Z,5.50
2017-08-29T22:24:36.135Z,6.30
2017-08-29T22:27:09.815Z,6.33
2017-08-29T22:29:44.150Z,5.90
2017-08-29T22:32:18.431Z,6.27
2017-08-29T22:34:52.500Z,5.80
2017-08-29T22:37:26.584Z,6.07
2017-08-29T22:40:01.253Z,7.27
2017-08-29T22:42:35.139Z,6.17
2017-08-29T22:45:09.311Z,6.37
2017-08-29T22:47:43.594Z,6.57
2017-08-29T22:50:17.560Z,6.57
2017-08-29T22:52:51.787Z,6.10
2017-08-29T22:55:25.748Z,6.13
2017-08-29T22:58:00.027Z,5.97
2017-08-29T23:00:35.427Z,6.30
2017-08-29T23:03:09.632Z,6.20
2017-08-29T23:05:44.099Z,6.07
2017-08-29T23:08:17.933Z,6.50
2017-08-29T23:10:51.929Z,6.30
2017-08-29T23:13:26.228Z,6.43
2017-08-29T23:16:00.226Z,5.93
2017-08-29T23:18:34.679Z,6.50
2017-08-29T23:21:09.247Z,6.70
2017-08-29T23:23:43.048Z,6.10
2017-08-29T23:26:17.329Z,6.23
2017-08-29T23:28:51.825Z,7.20
2017-08-29T23:31:25.400Z,6.40
2017-08-29T23:33:59.992Z,6.33
2017-08-29T23:36:33.753Z,6.63
2017-08-29T23:39:07.850Z,6.40
2017-08-29T23:41:42.757Z,6.17
2017-08-29T23:44:17.227Z,6.83
2017-08-29T23:46:52.260Z,6.40
2017-08-29T23:49:25.688Z,6.37
2017-08-29T23:52:00.137Z,6.80
2017-08-29T23:54:34.280Z,6.90
2017-08-29T23:57:08.704Z,7.20
2017-08-29T23:59:42.446Z,7.70
